Time;durP1;ratioP1;P1;durP2;ratioP2;P2;SDS_P1;SDS_P2;PMS_P1;PMS_P2;Temp;Humidity;BMP_temperature;BMP_pressure;BME280_temperature;BME280_humidity;BME280_pressure;Samples;Min_cycle;Max_cycle;Signal;HPM_P1;HPM_P2
2022/01/31 00:00:57;;;;;;;;;;;3.50;99.90;;;;;;5048153;28;19923;-48
2022/01/31 00:03:24;;;;;;;;;;;3.60;99.90;;;;;;5070007;28;19930;-48
2022/01/31 00:05:49;;;;;;;;;;;3.50;99.90;;;;;;5071309;28;19924;-48
2022/01/31 00:08:21;;;;;;;;;;;3.50;99.90;;;;;;5066481;28;20359;-47
2022/01/31 00:10:47;;;;;;;;;;;3.50;99.90;;;;;;5088135;28;19920;-47
2022/01/31 00:13:21;;;;;;;;;;;3.50;99.90;;;;;;5101063;28;19928;-47
2022/01/31 00:15:53;;;;;;;;;;;3.50;99.90;;;;;;5051008;28;20069;-47
2022/01/31 00:18:19;;;;;;;;;;;3.50;99.90;;;;;;5101352;28;19920;-47
2022/01/31 00:20:44;;;;;;;;;;;3.50;99.90;;;;;;5074052;28;20405;-46
2022/01/31 00:23:10;;;;;;;;;;;3.50;99.90;;;;;;5071444;28;20432;-47
2022/01/31 00:25:37;;;;;;;;;;;3.50;99.90;;;;;;5067938;28;19975;-47
2022/01/31 00:28:03;;;;;;;;;;;3.50;99.90;;;;;;5070067;28;19920;-48
2022/01/31 00:30:28;;;;;;;;;;;3.50;99.90;;;;;;5086101;28;19943;-49
2022/01/31 00:32:54;;;;;;;;;;;3.50;99.90;;;;;;5071870;28;19920;-47
2022/01/31 00:35:20;;;;;;;;;;;3.50;99.90;;;;;;5070709;28;19939;-48
2022/01/31 00:37:46;;;;;;;;;;;3.50;99.90;;;;;;5088082;28;19928;-47
2022/01/31 00:40:12;;;;;;;;;;;3.50;99.90;;;;;;5067461;28;19980;-50
2022/01/31 00:42:38;;;;;;;;;;;3.50;99.90;;;;;;5055421;28;19965;-47
2022/01/31 00:45:18;;;;;;;;;;;3.50;99.90;;;;;;5067545;28;20355;-48
2022/01/31 00:47:49;;;;;;;;;;;3.50;99.90;;;;;;5069939;28;19943;-48
2022/01/31 00:50:18;;;;;;;;;;;3.50;99.90;;;;;;5096954;28;19967;-48
2022/01/31 00:52:44;;;;;;;;;;;3.50;99.90;;;;;;5066345;28;19932;-48
2022/01/31 00:55:10;;;;;;;;;;;3.50;99.90;;;;;;5086842;28;19931;-49
2022/01/31 00:57:36;;;;;;;;;;;3.50;99.90;;;;;;5053832;28;19920;-48
2022/01/31 01:00:03;;;;;;;;;;;3.50;99.90;;;;;;5069015;28;20274;-48
2022/01/31 01:02:30;;;;;;;;;;;3.60;99.90;;;;;;5089606;28;20161;-47
2022/01/31 01:04:56;;;;;;;;;;;3.60;99.90;;;;;;5092078;28;20289;-48
2022/01/31 01:07:22;;;;;;;;;;;3.60;99.90;;;;;;5054464;28;19920;-48
2022/01/31 01:09:48;;;;;;;;;;;3.60;99.90;;;;;;5089473;28;19993;-47
2022/01/31 01:12:14;;;;;;;;;;;3.50;99.90;;;;;;5088593;28;20437;-49
2022/01/31 01:14:41;;;;;;;;;;;3.50;99.90;;;;;;5073842;28;20073;-47
2022/01/31 01:17:07;;;;;;;;;;;3.50;99.90;;;;;;5073996;28;19928;-49
2022/01/31 01:19:33;;;;;;;;;;;3.50;99.90;;;;;;5106748;28;19935;-48
2022/01/31 01:22:00;;;;;;;;;;;3.50;99.90;;;;;;5089621;28;20370;-48
2022/01/31 01:24:26;;;;;;;;;;;3.50;99.90;;;;;;5067858;28;19926;-48
2022/01/31 01:26:52;;;;;;;;;;;3.50;99.90;;;;;;5104307;28;19920;-49
2022/01/31 01:29:19;;;;;;;;;;;3.50;99.90;;;;;;5093083;28;19930;-48
2022/01/31 01:31:46;;;;;;;;;;;3.50;99.90;;;;;;5071440;28;19931;-48
2022/01/31 01:34:12;;;;;;;;;;;3.50;99.90;;;;;;5072720;28;20019;-48
2022/01/31 01:36:38;;;;;;;;;;;3.50;99.90;;;;;;5089195;28;20002;-49
2022/01/31 01:39:04;;;;;;;;;;;3.40;99.90;;;;;;5063742;28;19938;-47
2022/01/31 01:41:31;;;;;;;;;;;3.50;99.90;;;;;;5089372;28;20015;-50
2022/01/31 01:43:56;;;;;;;;;;;3.40;99.90;;;;;;5087199;28;19936;-49
2022/01/31 01:46:22;;;;;;;;;;;3.40;99.90;;;;;;5107373;28;19920;-47
2022/01/31 01:48:48;;;;;;;;;;;3.40;99.90;;;;;;5070630;28;20005;-47
2022/01/31 01:51:14;;;;;;;;;;;3.40;99.90;;;;;;5103938;28;20007;-48
2022/01/31 01:53:40;;;;;;;;;;;3.40;99.90;;;;;;5073773;28;19920;-48
2022/01/31 01:56:07;;;;;;;;;;;3.30;99.90;;;;;;5064965;28;19924;-47
2022/01/31 01:58:39;;;;;;;;;;;3.30;99.90;;;;;;5087469;28;19928;-48
2022/01/31 02:01:05;;;;;;;;;;;3.30;99.90;;;;;;5090537;28;19928;-49
2022/01/31 02:03:32;;;;;;;;;;;3.20;99.90;;;;;;5058060;28;19924;-48
2022/01/31 02:05:58;;;;;;;;;;;3.30;99.90;;;;;;5056535;28;19920;-48
2022/01/31 02:08:25;;;;;;;;;;;3.20;99.90;;;;;;5105414;28;19969;-47
2022/01/31 02:10:51;;;;;;;;;;;3.20;99.90;;;;;;5056489;28;19928;-47
2022/01/31 02:13:17;;;;;;;;;;;3.20;99.90;;;;;;5071030;28;19926;-49
2022/01/31 02:15:44;;;;;;;;;;;3.10;99.90;;;;;;5073089;28;20377;-49
2022/01/31 02:18:10;;;;;;;;;;;3.10;99.90;;;;;;5101679;28;19928;-47
2022/01/31 02:20:37;;;;;;;;;;;3.10;99.90;;;;;;5071792;28;19924;-48
2022/01/31 02:23:04;;;;;;;;;;;3.10;99.90;;;;;;5072423;28;19919;-48
2022/01/31 02:25:30;;;;;;;;;;;3.10;99.90;;;;;;5071522;28;20378;-48
2022/01/31 02:27:57;;;;;;;;;;;3.00;99.90;;;;;;5055066;28;19974;-48
2022/01/31 02:30:23;;;;;;;;;;;3.00;99.90;;;;;;5071795;28;20011;-48
2022/01/31 02:32:48;;;;;;;;;;;3.00;99.90;;;;;;5073090;28;20141;-48
2022/01/31 02:35:14;;;;;;;;;;;2.90;99.90;;;;;;5102310;28;19924;-47
2022/01/31 02:37:40;;;;;;;;;;;2.90;99.90;;;;;;5069233;28;20167;-48
2022/01/31 02:40:07;;;;;;;;;;;2.80;99.90;;;;;;5088398;28;20077;-47
2022/01/31 02:42:32;;;;;;;;;;;2.70;99.90;;;;;;5090206;27;19924;-48
2022/01/31 02:44:58;;;;;;;;;;;2.70;99.90;;;;;;5070943;28;19931;-47
2022/01/31 02:47:27;;;;;;;;;;;2.70;99.90;;;;;;5070588;28;19950;-47
2022/01/31 02:49:57;;;;;;;;;;;2.70;99.90;;;;;;5069511;28;19967;-48
2022/01/31 02:52:25;;;;;;;;;;;2.60;99.90;;;;;;5062887;28;20368;-48
2022/01/31 02:54:51;;;;;;;;;;;2.60;99.90;;;;;;5089734;28;19931;-47
2022/01/31 02:57:18;;;;;;;;;;;2.60;99.90;;;;;;5089087;28;20441;-47
2022/01/31 02:59:44;;;;;;;;;;;2.60;99.90;;;;;;5070208;28;19927;-48
2022/01/31 03:02:09;;;;;;;;;;;2.60;99.90;;;;;;5064625;28;20291;-47
2022/01/31 03:04:35;;;;;;;;;;;2.60;99.90;;;;;;5055144;28;19931;-48
2022/01/31 03:07:01;;;;;;;;;;;2.70;99.90;;;;;;5087978;28;19920;-48
2022/01/31 03:09:27;;;;;;;;;;;2.70;99.90;;;;;;5088637;28;20290;-47
2022/01/31 03:11:52;;;;;;;;;;;2.70;99.90;;;;;;5069358;28;19925;-47
2022/01/31 03:14:19;;;;;;;;;;;2.70;99.90;;;;;;5090525;28;20289;-48
2022/01/31 03:16:46;;;;;;;;;;;2.80;99.90;;;;;;5089019;28;19920;-47
2022/01/31 03:19:13;;;;;;;;;;;2.80;99.90;;;;;;5089026;28;20366;-47
2022/01/31 03:21:40;;;;;;;;;;;2.80;99.90;;;;;;5086968;28;19928;-47
2022/01/31 03:24:06;;;;;;;;;;;2.90;99.90;;;;;;5083272;28;20011;-48
2022/01/31 03:26:32;;;;;;;;;;;2.90;99.90;;;;;;5069103;28;19968;-48
2022/01/31 03:28:58;;;;;;;;;;;2.90;99.90;;;;;;5087148;28;19927;-48
2022/01/31 03:31:24;;;;;;;;;;;3.00;99.90;;;;;;5086962;28;19927;-48
2022/01/31 03:33:51;;;;;;;;;;;3.00;99.90;;;;;;5071185;28;20381;-47
2022/01/31 03:36:17;;;;;;;;;;;3.00;99.90;;;;;;5089679;28;19920;-47
2022/01/31 03:38:43;;;;;;;;;;;3.10;99.90;;;;;;5055932;28;19920;-47
2022/01/31 03:41:10;;;;;;;;;;;3.10;99.90;;;;;;5086880;28;20428;-48
2022/01/31 03:43:36;;;;;;;;;;;3.20;99.90;;;;;;5081594;28;20397;-47
2022/01/31 03:46:02;;;;;;;;;;;3.30;99.90;;;;;;5087858;28;19920;-47
2022/01/31 03:48:29;;;;;;;;;;;3.30;99.90;;;;;;5102266;28;19924;-47
2022/01/31 03:50:58;;;;;;;;;;;3.40;99.90;;;;;;5052887;28;19924;-48
2022/01/31 03:53:24;;;;;;;;;;;3.50;99.90;;;;;;5101885;28;20368;-47
2022/01/31 03:55:50;;;;;;;;;;;3.50;99.90;;;;;;5082117;28;19957;-48
2022/01/31 03:58:15;;;;;;;;;;;3.60;99.90;;;;;;5052607;28;19920;-49
2022/01/31 04:00:41;;;;;;;;;;;3.60;99.90;;;;;;5069969;28;19920;-47
2022/01/31 04:03:07;;;;;;;;;;;3.70;99.90;;;;;;5086776;28;19973;-49
2022/01/31 04:05:33;;;;;;;;;;;3.70;99.90;;;;;;5071188;28;19966;-48
2022/01/31 04:07:59;;;;;;;;;;;3.80;99.90;;;;;;5068369;28;19927;-49
2022/01/31 04:10:26;;;;;;;;;;;3.90;99.90;;;;;;5089598;28;19920;-48
2022/01/31 04:12:52;;;;;;;;;;;4.00;99.90;;;;;;5069209;28;20309;-47
2022/01/31 04:15:17;;;;;;;;;;;4.10;99.90;;;;;;5089287;28;19980;-49
2022/01/31 04:17:44;;;;;;;;;;;4.20;99.90;;;;;;5070205;28;19924;-48
2022/01/31 04:20:10;;;;;;;;;;;4.30;99.90;;;;;;5064158;28;20313;-49
2022/01/31 04:22:42;;;;;;;;;;;4.30;99.90;;;;;;5088030;28;19929;-48
2022/01/31 04:25:17;;;;;;;;;;;4.40;99.90;;;;;;5070422;28;19995;-49
2022/01/31 04:27:50;;;;;;;;;;;4.40;99.90;;;;;;5088430;28;19920;-48
2022/01/31 04:30:16;;;;;;;;;;;4.40;99.90;;;;;;5068548;28;19946;-49
2022/01/31 04:32:42;;;;;;;;;;;4.30;99.90;;;;;;5087600;28;20053;-48
2022/01/31 04:35:08;;;;;;;;;;;4.30;99.90;;;;;;5087418;28;19935;-49
2022/01/31 04:37:35;;;;;;;;;;;4.20;99.90;;;;;;5071755;28;19973;-48
2022/01/31 04:40:00;;;;;;;;;;;4.20;99.90;;;;;;5091871;28;20456;-48
2022/01/31 04:42:26;;;;;;;;;;;4.20;99.90;;;;;;5108384;28;19920;-47
2022/01/31 04:44:54;;;;;;;;;;;4.20;99.90;;;;;;5089186;28;19927;-48
2022/01/31 04:47:20;;;;;;;;;;;4.20;99.90;;;;;;5074545;28;19927;-49
2022/01/31 04:49:45;;;;;;;;;;;4.20;99.90;;;;;;5089685;28;19920;-48
2022/01/31 04:52:11;;;;;;;;;;;4.20;99.90;;;;;;5072315;28;19924;-47
2022/01/31 04:54:36;;;;;;;;;;;4.20;99.90;;;;;;5092359;28;20429;-47
2022/01/31 04:57:02;;;;;;;;;;;4.30;99.90;;;;;;5069565;28;19927;-47
2022/01/31 04:59:29;;;;;;;;;;;4.30;99.90;;;;;;5074354;28;20138;-48
2022/01/31 05:01:55;;;;;;;;;;;4.30;99.90;;;;;;5088410;28;19921;-47
2022/01/31 05:04:20;;;;;;;;;;;4.30;99.90;;;;;;5093849;28;19924;-48
2022/01/31 05:06:47;;;;;;;;;;;4.30;99.90;;;;;;5091051;28;19955;-48
2022/01/31 05:09:13;;;;;;;;;;;4.40;99.90;;;;;;5074377;28;19920;-48
2022/01/31 05:11:39;;;;;;;;;;;4.40;99.90;;;;;;5088675;28;20258;-47
2022/01/31 05:14:05;;;;;;;;;;;4.40;99.90;;;;;;5069922;28;20007;-48
2022/01/31 05:16:32;;;;;;;;;;;4.40;99.90;;;;;;5072402;28;19924;-48
2022/01/31 05:18:57;;;;;;;;;;;4.40;99.90;;;;;;5073637;28;20366;-47
2022/01/31 05:21:23;;;;;;;;;;;4.40;99.90;;;;;;5090277;28;19920;-48
2022/01/31 05:23:49;;;;;;;;;;;4.50;99.90;;;;;;5056635;28;20382;-48
2022/01/31 05:26:15;;;;;;;;;;;4.40;99.90;;;;;;5074555;28;19927;-48
2022/01/31 05:28:42;;;;;;;;;;;4.40;99.90;;;;;;5103382;28;19963;-48
2022/01/31 05:31:08;;;;;;;;;;;4.40;99.90;;;;;;5103137;28;19928;-49
2022/01/31 05:33:34;;;;;;;;;;;4.30;99.90;;;;;;5088115;28;19999;-48
2022/01/31 05:36:00;;;;;;;;;;;4.30;99.90;;;;;;5073205;28;19920;-48
2022/01/31 05:38:25;;;;;;;;;;;4.30;99.90;;;;;;5103724;28;20332;-49
2022/01/31 05:40:51;;;;;;;;;;;4.20;99.90;;;;;;5073309;28;20404;-49
2022/01/31 05:43:19;;;;;;;;;;;4.20;99.90;;;;;;5056848;28;19941;-49
2022/01/31 05:45:45;;;;;;;;;;;4.10;99.90;;;;;;5106996;28;19954;-48
2022/01/31 05:48:11;;;;;;;;;;;4.10;99.90;;;;;;5065197;28;19932;-47
2022/01/31 05:50:37;;;;;;;;;;;4.10;99.90;;;;;;5090512;28;19993;-48
2022/01/31 05:53:03;;;;;;;;;;;4.10;99.90;;;;;;5068218;28;20415;-47
2022/01/31 05:55:28;;;;;;;;;;;4.20;99.90;;;;;;5042494;28;19933;-49
2022/01/31 05:57:54;;;;;;;;;;;4.20;99.90;;;;;;5049165;28;19925;-47
2022/01/31 06:00:21;;;;;;;;;;;4.20;99.90;;;;;;5065325;28;19928;-49
2022/01/31 06:02:49;;;;;;;;;;;4.30;99.90;;;;;;5047912;28;19921;-48
2022/01/31 06:05:15;;;;;;;;;;;4.30;99.90;;;;;;5050110;28;20403;-47
2022/01/31 06:07:41;;;;;;;;;;;4.30;99.90;;;;;;5082096;28;20045;-47
2022/01/31 06:10:07;;;;;;;;;;;4.30;99.90;;;;;;5049152;28;19925;-47
2022/01/31 06:12:33;;;;;;;;;;;4.30;99.90;;;;;;5064675;28;20291;-49
2022/01/31 06:14:58;;;;;;;;;;;4.30;99.90;;;;;;5044179;28;19933;-48
2022/01/31 06:17:24;;;;;;;;;;;4.30;99.90;;;;;;5046393;28;19925;-48
2022/01/31 06:19:50;;;;;;;;;;;4.30;99.90;;;;;;5062501;28;19936;-48
2022/01/31 06:22:15;;;;;;;;;;;4.30;99.90;;;;;;5049188;28;19920;-49
2022/01/31 06:24:41;;;;;;;;;;;4.30;99.90;;;;;;5021661;28;19929;-48
2022/01/31 06:27:07;;;;;;;;;;;4.30;99.90;;;;;;5049044;28;19979;-48
2022/01/31 06:29:32;;;;;;;;;;;4.30;99.90;;;;;;5079114;28;20299;-48
2022/01/31 06:31:58;;;;;;;;;;;4.30;99.90;;;;;;5078919;28;20397;-47
2022/01/31 06:34:24;;;;;;;;;;;4.30;99.90;;;;;;5047915;28;20035;-51
2022/01/31 06:36:50;;;;;;;;;;;4.30;99.90;;;;;;5052764;28;19921;-50
2022/01/31 06:39:15;;;;;;;;;;;4.30;99.90;;;;;;5048355;28;20006;-47
2022/01/31 06:41:41;;;;;;;;;;;4.30;99.90;;;;;;5047621;28;19935;-50
2022/01/31 06:44:07;;;;;;;;;;;4.40;99.90;;;;;;5043774;28;20386;-47
2022/01/31 06:46:33;;;;;;;;;;;4.40;99.90;;;;;;5061247;28;19927;-48
2022/01/31 06:48:58;;;;;;;;;;;4.40;99.90;;;;;;5078546;28;20371;-48
2022/01/31 06:51:24;;;;;;;;;;;4.40;99.90;;;;;;5079117;28;19921;-49
2022/01/31 06:53:50;;;;;;;;;;;4.40;99.90;;;;;;5081409;28;19928;-51
2022/01/31 06:56:16;;;;;;;;;;;4.40;99.90;;;;;;5082902;28;19932;-49
2022/01/31 06:58:42;;;;;;;;;;;4.40;99.90;;;;;;5069135;28;19924;-48
2022/01/31 07:01:08;;;;;;;;;;;4.40;99.90;;;;;;5053715;28;20354;-49
2022/01/31 07:03:36;;;;;;;;;;;4.40;99.90;;;;;;5104969;27;20022;-49
2022/01/31 07:06:02;;;;;;;;;;;4.40;99.90;;;;;;5053269;28;19944;-48
2022/01/31 07:08:28;;;;;;;;;;;4.40;99.90;;;;;;5108996;27;19920;-47
2022/01/31 07:10:54;;;;;;;;;;;4.50;99.90;;;;;;5084913;28;19920;-47
2022/01/31 07:15:57;;;;;;;;;;;4.40;99.90;;;;;;5087745;28;19928;-50
2022/01/31 07:18:23;;;;;;;;;;;4.40;99.90;;;;;;5110372;27;19931;-48
2022/01/31 07:20:51;;;;;;;;;;;4.40;99.90;;;;;;5057700;28;19928;-48
2022/01/31 07:23:24;;;;;;;;;;;4.40;99.90;;;;;;5090764;28;19977;-47
2022/01/31 07:25:50;;;;;;;;;;;4.50;99.90;;;;;;5103682;28;19920;-47
2022/01/31 07:28:16;;;;;;;;;;;4.50;99.90;;;;;;5070089;28;19920;-48
2022/01/31 07:30:45;;;;;;;;;;;4.50;99.90;;;;;;5068724;28;19928;-49
2022/01/31 07:33:11;;;;;;;;;;;4.50;99.90;;;;;;5092640;28;19965;-48
2022/01/31 07:35:38;;;;;;;;;;;4.60;99.90;;;;;;5104998;27;19928;-47
2022/01/31 07:38:04;;;;;;;;;;;4.50;99.90;;;;;;5067000;28;19924;-47
2022/01/31 07:40:30;;;;;;;;;;;4.60;99.90;;;;;;5086714;28;20508;-47
2022/01/31 07:42:56;;;;;;;;;;;4.60;99.90;;;;;;5085980;28;19938;-47
2022/01/31 07:45:22;;;;;;;;;;;4.60;99.90;;;;;;5070961;28;20250;-47
2022/01/31 07:47:48;;;;;;;;;;;4.60;99.90;;;;;;5086340;28;19973;-47
2022/01/31 07:50:14;;;;;;;;;;;4.60;99.90;;;;;;5070041;28;19927;-48
2022/01/31 07:52:40;;;;;;;;;;;4.60;99.90;;;;;;5086301;28;19928;-49
2022/01/31 07:55:06;;;;;;;;;;;4.60;99.90;;;;;;5089260;28;19924;-48
2022/01/31 07:57:32;;;;;;;;;;;4.70;99.90;;;;;;5053955;28;19928;-50
2022/01/31 07:59:58;;;;;;;;;;;4.70;99.90;;;;;;5071120;28;20339;-49
2022/01/31 08:02:24;;;;;;;;;;;4.70;99.90;;;;;;5085904;28;19931;-48
2022/01/31 08:04:54;;;;;;;;;;;4.60;99.90;;;;;;5086930;28;19931;-49
2022/01/31 08:07:20;;;;;;;;;;;4.70;99.90;;;;;;5069782;28;19926;-48
2022/01/31 08:09:46;;;;;;;;;;;4.70;99.90;;;;;;5069384;28;19935;-49
2022/01/31 08:12:12;;;;;;;;;;;4.60;99.90;;;;;;5092656;28;20020;-50
2022/01/31 08:14:38;;;;;;;;;;;4.60;99.90;;;;;;5091108;28;19928;-50
2022/01/31 08:17:03;;;;;;;;;;;4.60;99.90;;;;;;5109650;28;19970;-48
2022/01/31 08:19:29;;;;;;;;;;;4.60;99.90;;;;;;5091357;28;20007;-48
2022/01/31 08:21:55;;;;;;;;;;;4.70;99.90;;;;;;5075600;28;19971;-48
2022/01/31 08:24:21;;;;;;;;;;;4.70;99.90;;;;;;5056566;28;19935;-49
2022/01/31 08:26:47;;;;;;;;;;;4.80;99.90;;;;;;5074662;28;19931;-49
2022/01/31 08:29:22;;;;;;;;;;;4.90;99.90;;;;;;5074387;28;19924;-51
2022/01/31 08:31:52;;;;;;;;;;;4.90;99.90;;;;;;5106389;27;19974;-47
2022/01/31 08:34:24;;;;;;;;;;;4.90;99.90;;;;;;5090266;28;19932;-50
2022/01/31 08:36:50;;;;;;;;;;;5.00;99.90;;;;;;5089562;28;19974;-50
2022/01/31 08:39:18;;;;;;;;;;;5.00;99.90;;;;;;5091286;28;19972;-49
2022/01/31 08:41:45;;;;;;;;;;;4.90;99.90;;;;;;5091937;28;19943;-49
2022/01/31 08:44:12;;;;;;;;;;;4.90;99.90;;;;;;5089981;28;19928;-50
2022/01/31 08:46:39;;;;;;;;;;;4.90;99.90;;;;;;5074752;28;19923;-50
2022/01/31 08:49:05;;;;;;;;;;;4.90;99.90;;;;;;5057349;28;19924;-50
2022/01/31 08:51:31;;;;;;;;;;;5.00;99.90;;;;;;5074200;28;19931;-49
2022/01/31 08:53:58;;;;;;;;;;;4.90;99.90;;;;;;5091885;28;20262;-49
2022/01/31 08:56:24;;;;;;;;;;;5.10;99.90;;;;;;5074982;28;19924;-51
2022/01/31 08:58:50;;;;;;;;;;;5.10;99.90;;;;;;5074328;28;19924;-50
2022/01/31 09:01:18;;;;;;;;;;;5.10;99.90;;;;;;5091018;28;20259;-48
2022/01/31 09:04:00;;;;;;;;;;;5.10;99.90;;;;;;5073427;28;19928;-48
2022/01/31 09:06:28;;;;;;;;;;;5.00;99.90;;;;;;5101969;28;19942;-50
2022/01/31 09:08:54;;;;;;;;;;;5.00;99.90;;;;;;5057421;28;20061;-49
2022/01/31 09:11:19;;;;;;;;;;;5.10;99.90;;;;;;5105384;28;20014;-48
2022/01/31 09:13:45;;;;;;;;;;;5.20;99.90;;;;;;5073505;28;19919;-49
2022/01/31 09:16:11;;;;;;;;;;;5.20;99.90;;;;;;5073289;28;19951;-50
2022/01/31 09:18:37;;;;;;;;;;;5.30;99.90;;;;;;5055974;28;19938;-50
2022/01/31 09:21:03;;;;;;;;;;;5.60;99.90;;;;;;5090028;28;19944;-49
2022/01/31 09:23:28;;;;;;;;;;;5.70;99.90;;;;;;5053819;28;19919;-49
2022/01/31 09:25:56;;;;;;;;;;;5.80;99.90;;;;;;5073332;28;19920;-50
2022/01/31 09:28:22;;;;;;;;;;;5.80;99.90;;;;;;5072124;28;19928;-49
2022/01/31 09:30:48;;;;;;;;;;;5.70;99.90;;;;;;5106304;28;19935;-50
2022/01/31 09:33:14;;;;;;;;;;;5.70;99.90;;;;;;5081041;28;19924;-48
2022/01/31 09:35:42;;;;;;;;;;;5.70;99.90;;;;;;5092084;28;19932;-49
2022/01/31 09:38:08;;;;;;;;;;;5.70;99.90;;;;;;5071389;28;19920;-48
2022/01/31 09:40:35;;;;;;;;;;;5.90;99.90;;;;;;5072783;28;19920;-49
2022/01/31 09:43:58;;;;;;;;;;;6.00;99.90;;;;;;5088316;28;19936;-48
2022/01/31 09:48:33;;;;;;;;;;;6.20;99.90;;;;;;5104264;28;19923;-49
2022/01/31 09:51:02;;;;;;;;;;;6.30;99.90;;;;;;5103433;28;20461;-48
2022/01/31 09:53:30;;;;;;;;;;;6.30;99.90;;;;;;5099874;28;20285;-47
2022/01/31 09:55:56;;;;;;;;;;;6.40;99.90;;;;;;5070469;28;20025;-48
2022/01/31 09:58:24;;;;;;;;;;;6.40;99.90;;;;;;5087947;28;20347;-49
2022/01/31 10:01:09;;;;;;;;;;;6.30;99.90;;;;;;5056600;28;19924;-48
2022/01/31 10:03:47;;;;;;;;;;;6.30;99.90;;;;;;5072329;28;19920;-49
2022/01/31 10:06:24;;;;;;;;;;;6.30;99.90;;;;;;5089960;28;19927;-48
2022/01/31 10:08:59;;;;;;;;;;;6.40;99.90;;;;;;5073631;28;20499;-49
2022/01/31 10:11:28;;;;;;;;;;;6.50;99.90;;;;;;5088275;28;20444;-50
2022/01/31 10:16:52;;;;;;;;;;;6.60;99.90;;;;;;5089637;28;19946;-49
2022/01/31 10:19:17;;;;;;;;;;;6.60;99.90;;;;;;5071354;28;20362;-50
2022/01/31 10:21:58;;;;;;;;;;;6.70;99.90;;;;;;5090432;28;20540;-48
2022/01/31 10:24:25;;;;;;;;;;;6.80;99.90;;;;;;5101640;27;20002;-48
2022/01/31 10:26:51;;;;;;;;;;;6.80;99.90;;;;;;5073003;28;19973;-48
2022/01/31 10:29:18;;;;;;;;;;;6.80;99.90;;;;;;5055911;28;19920;-48
2022/01/31 10:31:54;;;;;;;;;;;6.80;99.90;;;;;;5105964;28;19927;-48
2022/01/31 10:34:23;;;;;;;;;;;6.90;99.90;;;;;;5068668;28;20140;-48
2022/01/31 10:36:51;;;;;;;;;;;6.90;99.90;;;;;;5082852;28;20088;-49
2022/01/31 10:45:22;;;;;;;;;;;7.10;99.90;;;;;;5099015;28;19921;-53
2022/01/31 10:53:13;;;;;;;;;;;7.10;99.90;;;;;;5089460;28;20542;-48
2022/01/31 10:55:39;;;;;;;;;;;7.20;99.90;;;;;;5086633;28;20049;-48
2022/01/31 10:58:06;;;;;;;;;;;7.20;99.90;;;;;;5069031;28;20400;-49
2022/01/31 11:00:35;;;;;;;;;;;7.30;99.90;;;;;;5104001;28;19920;-49
2022/01/31 11:03:21;;;;;;;;;;;7.30;99.90;;;;;;5089072;28;19924;-51
2022/01/31 11:05:50;;;;;;;;;;;7.20;99.90;;;;;;5043687;28;19924;-49
2022/01/31 11:08:17;;;;;;;;;;;7.30;99.90;;;;;;5072116;28;19955;-51
2022/01/31 11:10:43;;;;;;;;;;;7.20;99.90;;;;;;5055331;28;19920;-49
2022/01/31 11:13:09;;;;;;;;;;;7.30;99.90;;;;;;5071279;28;19931;-49
2022/01/31 11:15:36;;;;;;;;;;;7.40;99.90;;;;;;5103084;27;19928;-50
2022/01/31 11:18:02;;;;;;;;;;;7.50;99.90;;;;;;5088053;28;20015;-49
2022/01/31 11:20:29;;;;;;;;;;;7.70;99.90;;;;;;5055745;28;19920;-47
2022/01/31 11:22:58;;;;;;;;;;;7.70;99.90;;;;;;5072254;28;20601;-48
2022/01/31 11:25:26;;;;;;;;;;;7.70;99.90;;;;;;5087579;28;19928;-49
2022/01/31 11:28:02;;;;;;;;;;;7.60;99.90;;;;;;5088622;28;19920;-48
2022/01/31 11:30:29;;;;;;;;;;;7.60;99.90;;;;;;5053940;28;20061;-48
2022/01/31 11:32:55;;;;;;;;;;;7.70;99.90;;;;;;5059710;28;20327;-48
2022/01/31 11:35:21;;;;;;;;;;;7.70;99.90;;;;;;5090063;28;20019;-48
2022/01/31 11:37:47;;;;;;;;;;;7.60;99.90;;;;;;5085153;28;20079;-48
2022/01/31 11:40:14;;;;;;;;;;;7.70;99.90;;;;;;5088307;28;19931;-49
2022/01/31 11:42:45;;;;;;;;;;;7.90;99.90;;;;;;5083636;28;19935;-49
2022/01/31 11:45:19;;;;;;;;;;;7.90;99.90;;;;;;5087137;28;20207;-49
2022/01/31 11:47:49;;;;;;;;;;;7.90;99.90;;;;;;5068821;28;19931;-51
2022/01/31 11:50:15;;;;;;;;;;;7.80;99.90;;;;;;5087282;28;20013;-49
2022/01/31 11:52:47;;;;;;;;;;;7.80;99.90;;;;;;5063954;28;19924;-48
2022/01/31 11:55:15;;;;;;;;;;;7.60;99.90;;;;;;5087017;28;19928;-48
2022/01/31 11:57:47;;;;;;;;;;;7.60;99.90;;;;;;5099910;28;20288;-49
2022/01/31 12:00:13;;;;;;;;;;;7.50;99.90;;;;;;5101280;28;19920;-48
2022/01/31 12:02:46;;;;;;;;;;;7.50;99.90;;;;;;5086745;28;19920;-48
2022/01/31 12:05:14;;;;;;;;;;;7.60;99.90;;;;;;5055273;28;19920;-48
2022/01/31 12:07:41;;;;;;;;;;;7.60;99.90;;;;;;5054453;28;20015;-48
2022/01/31 12:10:26;;;;;;;;;;;7.70;99.90;;;;;;5085774;28;19977;-49
2022/01/31 12:13:00;;;;;;;;;;;7.80;99.90;;;;;;5083816;28;19924;-49
2022/01/31 12:16:15;;;;;;;;;;;7.80;99.90;;;;;;5068200;28;20382;-51
2022/01/31 12:24:02;;;;;;;;;;;7.60;99.90;;;;;;5069754;28;19945;-49
2022/01/31 12:26:31;;;;;;;;;;;7.70;99.90;;;;;;5085978;28;19931;-49
2022/01/31 12:28:59;;;;;;;;;;;7.70;99.90;;;;;;5073066;28;19920;-49
2022/01/31 12:31:34;;;;;;;;;;;7.80;99.90;;;;;;5074538;28;20002;-49
2022/01/31 12:34:01;;;;;;;;;;;7.90;99.90;;;;;;5073567;28;20414;-51
2022/01/31 12:36:50;;;;;;;;;;;7.90;99.90;;;;;;5105106;28;20362;-50
2022/01/31 12:39:28;;;;;;;;;;;8.00;99.90;;;;;;5050486;28;19928;-52
2022/01/31 12:42:01;;;;;;;;;;;8.10;99.90;;;;;;5084708;28;19966;-50
2022/01/31 12:44:34;;;;;;;;;;;8.10;99.90;;;;;;5071694;28;20384;-49
2022/01/31 12:47:07;;;;;;;;;;;8.10;99.90;;;;;;5074813;28;20378;-50
2022/01/31 12:49:33;;;;;;;;;;;8.00;99.90;;;;;;5069288;28;21054;-48
2022/01/31 12:51:59;;;;;;;;;;;8.00;99.90;;;;;;5052394;28;19935;-48
2022/01/31 12:54:24;;;;;;;;;;;7.90;99.90;;;;;;5087262;28;19932;-49
2022/01/31 12:56:51;;;;;;;;;;;7.90;99.90;;;;;;5086650;28;20000;-49
2022/01/31 12:59:17;;;;;;;;;;;8.00;99.90;;;;;;5108323;27;19924;-48
2022/01/31 13:01:47;;;;;;;;;;;8.00;99.90;;;;;;5074615;28;19924;-49
2022/01/31 13:04:15;;;;;;;;;;;7.90;99.90;;;;;;5073312;28;19920;-49
2022/01/31 13:06:48;;;;;;;;;;;7.90;99.90;;;;;;5070823;28;20005;-48
2022/01/31 13:09:15;;;;;;;;;;;7.80;99.90;;;;;;5091987;28;19962;-50
2022/01/31 13:11:44;;;;;;;;;;;7.70;99.90;;;;;;5089454;28;19935;-49
2022/01/31 13:14:16;;;;;;;;;;;7.60;99.90;;;;;;5090758;28;19935;-48
2022/01/31 13:16:44;;;;;;;;;;;7.60;99.90;;;;;;5068049;28;20389;-50
2022/01/31 13:19:13;;;;;;;;;;;7.60;99.90;;;;;;5069409;28;19924;-50
2022/01/31 13:21:40;;;;;;;;;;;7.50;99.90;;;;;;5088889;28;19926;-49
2022/01/31 13:24:06;;;;;;;;;;;7.40;99.90;;;;;;5088611;28;19924;-49
2022/01/31 13:26:46;;;;;;;;;;;7.30;99.90;;;;;;5071793;28;20335;-48
2022/01/31 13:29:11;;;;;;;;;;;7.30;99.90;;;;;;5084705;28;19928;-48
2022/01/31 13:31:41;;;;;;;;;;;7.40;99.90;;;;;;5072525;28;19920;-50
2022/01/31 13:34:07;;;;;;;;;;;7.40;99.90;;;;;;5089951;28;19920;-48
2022/01/31 13:36:36;;;;;;;;;;;7.60;99.90;;;;;;5055414;28;19927;-47
2022/01/31 13:39:02;;;;;;;;;;;7.70;99.90;;;;;;5088107;28;19957;-48
2022/01/31 13:41:28;;;;;;;;;;;7.80;99.90;;;;;;5072717;28;19959;-47
2022/01/31 13:43:59;;;;;;;;;;;7.70;99.90;;;;;;5069426;28;20468;-48
2022/01/31 13:46:29;;;;;;;;;;;7.70;99.90;;;;;;5072257;28;20082;-47
2022/01/31 13:49:09;;;;;;;;;;;7.70;99.90;;;;;;5054594;28;20022;-48
2022/01/31 13:51:42;;;;;;;;;;;7.60;99.90;;;;;;5054722;28;20035;-48
2022/01/31 13:54:11;;;;;;;;;;;7.50;99.90;;;;;;5071306;28;20402;-48
2022/01/31 13:56:37;;;;;;;;;;;7.50;99.90;;;;;;5070242;28;20085;-48
2022/01/31 13:59:07;;;;;;;;;;;7.50;99.90;;;;;;5070406;28;19920;-49
2022/01/31 14:01:33;;;;;;;;;;;7.60;99.90;;;;;;5103610;28;19924;-48
2022/01/31 14:03:59;;;;;;;;;;;7.60;99.90;;;;;;5105596;28;19972;-48
2022/01/31 14:06:25;;;;;;;;;;;7.60;99.90;;;;;;5089593;28;19924;-48
2022/01/31 14:08:55;;;;;;;;;;;7.50;99.90;;;;;;5088639;28;19931;-49
2022/01/31 14:11:22;;;;;;;;;;;7.30;99.90;;;;;;5087321;28;20023;-49
2022/01/31 14:13:52;;;;;;;;;;;7.20;99.90;;;;;;5089611;28;20475;-48
2022/01/31 14:16:22;;;;;;;;;;;7.20;99.90;;;;;;5072022;28;19924;-51
2022/01/31 14:18:49;;;;;;;;;;;7.10;99.90;;;;;;5087527;28;19942;-50
2022/01/31 14:21:15;;;;;;;;;;;7.00;99.90;;;;;;5087178;28;19927;-48
2022/01/31 14:23:42;;;;;;;;;;;6.90;99.90;;;;;;5071401;28;20048;-48
2022/01/31 14:26:09;;;;;;;;;;;6.80;99.90;;;;;;5070015;28;19927;-48
2022/01/31 14:28:37;;;;;;;;;;;6.70;99.90;;;;;;5087065;28;19920;-49
2022/01/31 14:31:04;;;;;;;;;;;6.70;99.90;;;;;;5087124;28;19971;-50
2022/01/31 14:33:31;;;;;;;;;;;6.60;99.90;;;;;;5054072;28;20011;-48
2022/01/31 14:36:01;;;;;;;;;;;6.60;99.90;;;;;;5086358;28;19924;-48
2022/01/31 14:38:32;;;;;;;;;;;6.40;99.90;;;;;;5089063;28;19931;-48
2022/01/31 14:49:07;;;;;;;;;;;6.00;99.90;;;;;;5093226;28;19923;-47
2022/01/31 14:51:35;;;;;;;;;;;5.90;99.90;;;;;;5072402;28;20465;-48
2022/01/31 14:54:02;;;;;;;;;;;5.90;99.90;;;;;;5090777;28;19942;-49
2022/01/31 14:56:29;;;;;;;;;;;5.80;99.90;;;;;;5088241;28;19931;-48
2022/01/31 14:58:56;;;;;;;;;;;5.80;99.90;;;;;;5087550;28;19951;-49
2022/01/31 15:01:22;;;;;;;;;;;5.80;99.90;;;;;;5070613;28;19935;-48
2022/01/31 15:03:48;;;;;;;;;;;5.80;99.90;;;;;;5069560;28;19928;-50
2022/01/31 15:06:14;;;;;;;;;;;5.80;99.90;;;;;;5066217;28;19969;-48